createdAt,value
2019-02-22T00:00:05.541Z,32.95
2019-02-22T00:02:40.402Z,33.33
2019-02-22T00:05:11.699Z,28.33
2019-02-22T00:07:43.066Z,34.58
2019-02-22T00:10:14.235Z,32.83
2019-02-22T00:12:45.653Z,30.55
2019-02-22T00:15:16.866Z,36.58
2019-02-22T00:17:48.063Z,30.32
2019-02-22T00:20:19.346Z,32.13
2019-02-22T00:22:50.563Z,32.63
2019-02-22T00:25:22.711Z,31.75
2019-02-22T00:27:53.874Z,32.67
2019-02-22T00:30:25.075Z,34.90
2019-02-22T00:32:56.259Z,35.43
2019-02-22T00:35:27.534Z,32.50
2019-02-22T00:37:58.833Z,32.53
2019-02-22T00:40:30.023Z,32.08
2019-02-22T00:43:01.350Z,34.92
2019-02-22T00:45:32.555Z,34.60
2019-02-22T00:48:03.771Z,34.88
2019-02-22T00:50:35.101Z,36.23
2019-02-22T00:53:06.372Z,37.83
2019-02-22T00:55:37.591Z,32.57
2019-02-22T00:58:08.747Z,37.30
2019-02-22T01:00:39.922Z,32.90
2019-02-22T01:03:11.055Z,35.10
2019-02-22T01:05:42.352Z,35.43
2019-02-22T01:08:13.509Z,30.97
2019-02-22T01:10:44.666Z,33.27
2019-02-22T01:13:15.836Z,35.47
2019-02-22T01:15:47.091Z,35.63
2019-02-22T01:18:18.261Z,33.67
2019-02-22T01:20:54.422Z,34.23
2019-02-22T01:23:22.510Z,32.63
2019-02-22T01:25:53.806Z,33.90
2019-02-22T01:28:25.093Z,32.13
2019-02-22T01:30:57.304Z,31.20
2019-02-22T01:33:28.614Z,32.97
2019-02-22T01:35:59.869Z,29.30
2019-02-22T01:38:31.116Z,31.43
2019-02-22T01:41:02.385Z,29.92
2019-02-22T01:43:33.663Z,29.97
2019-02-22T01:46:04.920Z,30.17
2019-02-22T01:48:36.171Z,29.77
2019-02-22T01:51:07.377Z,31.87
2019-02-22T01:53:38.622Z,30.80
2019-02-22T01:56:09.851Z,30.52
2019-02-22T01:58:48.351Z,23.63
2019-02-22T02:01:13.950Z,22.00
2019-02-22T02:03:45.220Z,24.07
2019-02-22T02:06:16.426Z,25.17
2019-02-22T02:08:47.704Z,24.43
2019-02-22T02:11:18.959Z,22.10
2019-02-22T02:13:50.361Z,22.37
2019-02-22T02:16:21.581Z,26.02
2019-02-22T02:18:52.778Z,19.20
2019-02-22T02:21:24.103Z,21.17
2019-02-22T02:23:55.322Z,21.52
2019-02-22T02:26:26.503Z,20.87
2019-02-22T02:28:57.698Z,21.87
2019-02-22T02:31:28.989Z,19.07
2019-02-22T02:34:00.365Z,20.23
2019-02-22T02:36:31.572Z,18.80
2019-02-22T02:39:02.811Z,21.93
2019-02-22T02:41:37.682Z,20.23
2019-02-22T02:44:08.974Z,18.43
2019-02-22T02:46:40.223Z,21.33
2019-02-22T02:49:11.585Z,20.00
2019-02-22T02:51:42.818Z,18.23
2019-02-22T02:54:14.065Z,19.67
2019-02-22T02:56:46.325Z,21.90
2019-02-22T02:59:17.605Z,18.30
2019-02-22T03:01:48.837Z,17.67
2019-02-22T03:04:20.030Z,20.13
2019-02-22T03:07:01.146Z,21.67
2019-02-22T03:09:33.388Z,24.83
2019-02-22T03:12:04.634Z,22.27
2019-02-22T03:14:35.837Z,25.87
2019-02-22T03:17:07.024Z,26.27
2019-02-22T03:19:38.216Z,27.45
2019-02-22T03:22:09.504Z,24.57
2019-02-22T03:24:40.670Z,28.63
2019-02-22T03:27:11.892Z,29.27
2019-02-22T03:29:43.014Z,28.63
2019-02-22T03:32:14.191Z,32.43
2019-02-22T03:34:45.350Z,29.80
2019-02-22T03:37:16.581Z,29.23
2019-02-22T03:39:47.808Z,27.53
2019-02-22T03:42:19.059Z,28.13
2019-02-22T03:44:51.252Z,27.27
2019-02-22T03:47:22.540Z,28.77
2019-02-22T03:49:53.735Z,28.00
2019-02-22T03:52:35.762Z,24.83
2019-02-22T03:55:07.544Z,28.17
2019-02-22T03:57:38.742Z,26.23
2019-02-22T04:00:10.135Z,23.73
2019-02-22T04:02:41.334Z,25.33
2019-02-22T04:05:12.494Z,23.47
2019-02-22T04:07:43.696Z,26.17
2019-02-22T04:10:14.933Z,23.93
2019-02-22T04:12:46.206Z,27.13
2019-02-22T04:15:17.437Z,23.47
2019-02-22T04:17:48.630Z,25.23
2019-02-22T04:20:19.822Z,25.40
2019-02-22T04:22:52.069Z,26.37
2019-02-22T04:25:23.295Z,26.52
2019-02-22T04:27:54.479Z,180.73
2019-02-22T04:30:25.763Z,35.03
2019-02-22T04:32:56.947Z,24.85
2019-02-22T04:35:28.246Z,28.97
2019-02-22T04:37:59.511Z,24.50
2019-02-22T04:40:30.797Z,23.57
2019-02-22T04:43:01.955Z,20.77
2019-02-22T04:45:33.281Z,22.10
2019-02-22T04:48:05.578Z,26.12
2019-02-22T04:50:36.811Z,25.37
2019-02-22T04:53:07.986Z,20.63
2019-02-22T04:55:39.194Z,21.80
2019-02-22T04:58:10.499Z,46.45
2019-02-22T05:00:41.717Z,21.05
2019-02-22T05:03:12.916Z,19.80
2019-02-22T05:05:44.239Z,19.00
2019-02-22T05:08:15.463Z,20.52
2019-02-22T05:10:46.683Z,21.30
2019-02-22T05:13:17.869Z,20.63
2019-02-22T05:15:49.365Z,20.30
2019-02-22T05:18:20.670Z,32.43
2019-02-22T05:20:51.879Z,20.00
2019-02-22T05:23:23.183Z,20.87
2019-02-22T05:25:54.295Z,20.17
2019-02-22T05:28:25.889Z,19.27
2019-02-22T05:30:57.036Z,21.83
2019-02-22T05:33:28.200Z,19.83
2019-02-22T05:35:59.427Z,15.33
2019-02-22T05:38:30.657Z,20.03
2019-02-22T05:41:01.886Z,18.63
2019-02-22T05:43:33.073Z,18.67
2019-02-22T05:46:04.345Z,17.70
2019-02-22T05:48:38.671Z,15.28
2019-02-22T05:51:08.589Z,21.30
2019-02-22T05:53:39.923Z,18.73
2019-02-22T05:56:12.145Z,16.70
2019-02-22T05:58:43.363Z,17.33
2019-02-22T06:01:14.577Z,18.10
2019-02-22T06:03:45.912Z,15.07
2019-02-22T06:06:17.291Z,20.73
2019-02-22T06:08:48.584Z,18.48
2019-02-22T06:11:20.959Z,15.60
2019-02-22T06:13:52.147Z,15.60
2019-02-22T06:16:23.553Z,16.37
2019-02-22T06:18:54.830Z,17.00
2019-02-22T06:21:26.048Z,17.73
2019-02-22T06:23:57.237Z,16.25
2019-02-22T06:26:30.404Z,16.90
2019-02-22T06:29:01.450Z,18.43
2019-02-22T06:31:32.652Z,14.23
2019-02-22T06:34:03.838Z,15.57
2019-02-22T06:36:35.072Z,13.67
2019-02-22T06:39:06.462Z,12.67
2019-02-22T06:41:37.691Z,12.33
2019-02-22T06:44:08.922Z,12.23
2019-02-22T06:46:40.156Z,10.30
2019-02-22T06:49:11.394Z,15.33
2019-02-22T06:51:42.603Z,12.83
2019-02-22T06:54:14.917Z,13.83
2019-02-22T06:56:47.143Z,9.78
2019-02-22T06:59:20.205Z,10.43
2019-02-22T07:01:51.452Z,14.83
2019-02-22T07:04:22.617Z,12.17
2019-02-22T07:06:53.825Z,12.17
2019-02-22T07:09:25.025Z,12.40
2019-02-22T07:11:59.495Z,9.73
2019-02-22T07:14:30.712Z,11.10
2019-02-22T07:17:02.089Z,11.77
2019-02-22T07:19:33.258Z,9.13
2019-02-22T07:22:04.467Z,9.47
2019-02-22T07:24:35.650Z,8.93
2019-02-22T07:27:06.804Z,9.17
2019-02-22T07:29:38.035Z,10.03
2019-02-22T07:32:09.232Z,10.03
2019-02-22T07:34:40.421Z,9.83
2019-02-22T07:37:11.552Z,9.90
2019-02-22T07:39:42.770Z,11.30
2019-02-22T07:42:14.027Z,10.07
2019-02-22T07:44:45.198Z,9.60
2019-02-22T07:47:16.418Z,7.97
2019-02-22T07:49:47.636Z,8.43
2019-02-22T07:52:18.855Z,7.67
2019-02-22T07:54:50.029Z,7.97
2019-02-22T07:57:21.200Z,9.07
2019-02-22T07:59:52.368Z,8.13
2019-02-22T08:02:23.567Z,7.60
2019-02-22T08:04:54.751Z,7.60
2019-02-22T08:07:26.030Z,7.90
2019-02-22T08:09:57.255Z,8.10
2019-02-22T08:12:28.402Z,7.83
2019-02-22T08:14:59.587Z,7.97
2019-02-22T08:17:30.860Z,10.13
2019-02-22T08:20:02.076Z,9.17
2019-02-22T08:22:33.386Z,8.27
2019-02-22T08:25:04.520Z,8.67
2019-02-22T08:27:35.732Z,8.57
2019-02-22T08:30:08.822Z,8.77
2019-02-22T08:32:40.029Z,8.20
2019-02-22T08:35:10.546Z,8.47
2019-02-22T08:37:41.857Z,8.50
2019-02-22T08:40:13.024Z,8.07
2019-02-22T08:42:44.189Z,6.63
2019-02-22T08:45:15.418Z,6.93
2019-02-22T08:47:46.538Z,6.80
2019-02-22T08:50:17.747Z,6.83
2019-02-22T08:52:48.926Z,7.93
2019-02-22T08:55:20.142Z,7.03
2019-02-22T08:57:52.354Z,7.90
2019-02-22T09:00:23.542Z,9.20
2019-02-22T09:02:54.790Z,8.70
2019-02-22T09:05:26.028Z,8.67
2019-02-22T09:07:57.325Z,10.37
2019-02-22T09:10:28.570Z,9.43
2019-02-22T09:12:59.859Z,10.43
2019-02-22T09:15:31.039Z,9.83
2019-02-22T09:18:02.190Z,10.13
2019-02-22T09:20:34.459Z,9.47
2019-02-22T09:23:07.609Z,10.60
2019-02-22T09:25:39.728Z,10.73
2019-02-22T09:28:10.878Z,10.63
2019-02-22T09:30:42.135Z,10.20
2019-02-22T09:33:13.439Z,10.73
2019-02-22T09:35:44.631Z,11.53
2019-02-22T09:38:15.842Z,13.27
2019-02-22T09:40:47.086Z,12.33
2019-02-22T09:43:18.278Z,11.13
2019-02-22T09:45:49.486Z,15.00
2019-02-22T09:48:20.754Z,20.27
2019-02-22T09:50:51.967Z,16.57
2019-02-22T09:53:23.180Z,13.97
2019-02-22T09:55:54.529Z,15.53
2019-02-22T09:58:26.794Z,15.90
2019-02-22T10:00:58.077Z,15.17
2019-02-22T10:03:29.275Z,16.50
2019-02-22T10:06:00.435Z,17.93
2019-02-22T10:08:31.775Z,17.00
2019-02-22T10:11:02.958Z,17.23
2019-02-22T10:13:34.254Z,17.87
2019-02-22T10:16:05.415Z,16.97
2019-02-22T10:18:36.793Z,17.57
2019-02-22T10:21:07.989Z,18.83
2019-02-22T10:23:39.215Z,15.90
2019-02-22T10:26:10.503Z,29.13
2019-02-22T10:28:41.699Z,17.87
2019-02-22T10:31:12.929Z,23.37
2019-02-22T10:33:44.103Z,17.33
2019-02-22T10:36:15.304Z,17.27
2019-02-22T10:38:46.521Z,17.23
2019-02-22T10:41:17.714Z,13.83
2019-02-22T10:43:49.114Z,18.97
2019-02-22T10:46:22.466Z,14.23
2019-02-22T10:48:53.861Z,16.43
2019-02-22T10:51:25.151Z,14.97
2019-02-22T10:53:56.347Z,15.47
2019-02-22T10:56:28.458Z,14.27
2019-02-22T10:58:59.698Z,13.57
2019-02-22T11:01:30.974Z,13.90
2019-02-22T11:04:02.140Z,14.17
2019-02-22T11:06:33.327Z,12.33
2019-02-22T11:09:05.525Z,13.57
2019-02-22T11:11:37.597Z,13.67
2019-02-22T11:14:08.772Z,12.00
2019-02-22T11:16:39.945Z,12.60
2019-02-22T11:19:11.303Z,12.33
2019-02-22T11:21:42.504Z,12.97
2019-02-22T11:24:13.677Z,12.40
2019-02-22T11:26:44.945Z,11.67
2019-02-22T11:29:17.264Z,12.77
2019-02-22T11:31:48.482Z,13.17
2019-02-22T11:34:19.664Z,12.77
2019-02-22T11:36:51.026Z,12.43
2019-02-22T11:39:22.226Z,12.80
2019-02-22T11:41:53.452Z,13.20
2019-02-22T11:44:24.665Z,12.60
2019-02-22T11:46:55.945Z,12.60
2019-02-22T11:49:27.183Z,11.93
2019-02-22T11:51:58.390Z,13.07
2019-02-22T11:54:29.605Z,13.23
2019-02-22T11:57:00.811Z,12.33
2019-02-22T11:59:31.951Z,11.93
2019-02-22T12:02:03.278Z,13.00
2019-02-22T12:04:34.473Z,12.60
2019-02-22T12:07:05.651Z,12.57
2019-02-22T12:09:36.844Z,12.87
2019-02-22T12:12:08.136Z,11.87
2019-02-22T12:14:39.337Z,12.27
2019-02-22T12:17:10.594Z,11.97
2019-02-22T12:19:41.765Z,11.57
2019-02-22T12:22:13.990Z,11.40
2019-02-22T12:24:45.231Z,11.43
2019-02-22T12:27:16.483Z,11.67
2019-02-22T12:29:47.654Z,10.27
2019-02-22T12:32:18.864Z,9.60
2019-02-22T12:34:51.130Z,8.43
2019-02-22T12:37:22.315Z,6.90
2019-02-22T12:39:53.524Z,7.90
2019-02-22T12:42:24.823Z,7.83
2019-02-22T12:45:02.993Z,6.97
2019-02-22T12:47:28.964Z,7.27
2019-02-22T12:50:00.250Z,7.30
2019-02-22T12:52:31.530Z,7.07
2019-02-22T12:55:02.692Z,7.47
2019-02-22T12:57:34.935Z,7.53
2019-02-22T13:00:07.893Z,7.53
2019-02-22T13:02:39.222Z,7.40
2019-02-22T13:05:12.478Z,6.93
2019-02-22T13:07:43.636Z,6.17
2019-02-22T13:10:15.047Z,6.50
2019-02-22T13:12:47.314Z,5.72
2019-02-22T13:15:18.662Z,5.67
2019-02-22T13:17:49.849Z,5.65
2019-02-22T13:20:21.011Z,5.10
2019-02-22T13:22:52.215Z,4.90
2019-02-22T13:25:23.482Z,4.80
2019-02-22T13:27:54.633Z,5.12
2019-02-22T13:30:25.846Z,5.17
2019-02-22T13:32:57.056Z,5.00
2019-02-22T13:35:28.277Z,4.95
2019-02-22T13:37:59.456Z,5.00
2019-02-22T13:40:30.676Z,4.87
2019-02-22T13:43:01.889Z,5.17
2019-02-22T13:45:34.108Z,5.08
2019-02-22T13:48:05.323Z,5.20
2019-02-22T13:50:36.520Z,5.45
2019-02-22T13:53:07.704Z,4.92
2019-02-22T13:55:39.007Z,5.35
2019-02-22T13:58:10.192Z,5.10
2019-02-22T14:00:41.353Z,5.20
2019-02-22T14:03:12.587Z,4.45
2019-02-22T14:05:43.758Z,5.12
2019-02-22T14:08:14.944Z,4.70
2019-02-22T14:10:46.208Z,4.95
2019-02-22T14:13:17.653Z,4.42
2019-02-22T14:15:48.860Z,4.00
2019-02-22T14:18:20.104Z,4.70
2019-02-22T14:20:51.369Z,3.90
2019-02-22T14:23:22.541Z,4.10
2019-02-22T14:25:53.782Z,4.65
2019-02-22T14:28:25.043Z,3.70
2019-02-22T14:30:56.212Z,4.58
2019-02-22T14:33:27.400Z,4.17
2019-02-22T14:35:58.580Z,3.95
2019-02-22T14:38:29.808Z,4.30
2019-02-22T14:41:01.008Z,3.77
2019-02-22T14:43:32.334Z,3.67
2019-02-22T14:46:03.499Z,4.20
2019-02-22T14:48:34.667Z,4.00
2019-02-22T14:51:05.906Z,4.35
2019-02-22T14:53:37.115Z,4.75
2019-02-22T14:56:08.376Z,4.30
2019-02-22T14:58:39.666Z,4.05
2019-02-22T15:01:10.926Z,4.37
2019-02-22T15:03:42.131Z,4.67
2019-02-22T15:06:13.302Z,4.95
2019-02-22T15:08:44.530Z,4.42
2019-02-22T15:11:15.723Z,5.70
2019-02-22T15:13:47.934Z,4.90
2019-02-22T15:16:44.108Z,4.87
2019-02-22T15:19:15.741Z,4.75
2019-02-22T15:21:47.181Z,5.50
2019-02-22T15:24:18.376Z,5.35
2019-02-22T15:26:49.583Z,4.55
2019-02-22T15:29:20.817Z,4.70
2019-02-22T15:31:52.082Z,4.22
2019-02-22T15:34:23.336Z,4.15
2019-02-22T15:36:54.542Z,4.65
2019-02-22T15:39:25.980Z,4.22
2019-02-22T15:41:57.253Z,4.65
2019-02-22T15:44:28.582Z,4.70
2019-02-22T15:47:11.063Z,3.87
2019-02-22T15:49:33.033Z,4.37
2019-02-22T15:52:04.459Z,4.67
2019-02-22T15:54:35.691Z,4.60
2019-02-22T15:57:06.846Z,5.05
2019-02-22T15:59:38.067Z,4.58
2019-02-22T16:02:09.327Z,4.92
2019-02-22T16:04:54.019Z,5.30
2019-02-22T16:07:26.230Z,5.65
2019-02-22T16:09:57.384Z,5.55
2019-02-22T16:12:28.787Z,6.08
2019-02-22T16:14:59.980Z,5.78
2019-02-22T16:17:32.274Z,5.92
2019-02-22T16:20:04.430Z,5.60
2019-02-22T16:22:35.655Z,7.90
2019-02-22T16:25:18.562Z,5.83
2019-02-22T16:27:39.849Z,6.17
2019-02-22T16:30:12.420Z,5.83
2019-02-22T16:32:43.538Z,6.17
2019-02-22T16:35:17.653Z,6.05
2019-02-22T16:37:48.788Z,6.57
2019-02-22T16:40:19.991Z,6.40
2019-02-22T16:42:51.226Z,7.33
2019-02-22T16:45:22.480Z,7.27
2019-02-22T16:47:53.677Z,6.72
2019-02-22T16:50:24.823Z,7.63
2019-02-22T16:52:56.095Z,7.47
2019-02-22T16:55:31.236Z,16.47
2019-02-22T16:58:02.481Z,9.33
2019-02-22T17:00:33.715Z,6.37
2019-02-22T17:03:05.480Z,6.57
2019-02-22T17:05:36.744Z,5.30
2019-02-22T17:08:07.916Z,5.83
2019-02-22T17:10:39.065Z,5.40
2019-02-22T17:13:10.798Z,5.80
2019-02-22T17:15:42.049Z,4.97
2019-02-22T17:18:13.266Z,4.73
2019-02-22T17:20:44.743Z,4.93
2019-02-22T17:23:15.953Z,4.93
2019-02-22T17:25:47.140Z,5.73
2019-02-22T17:28:18.390Z,5.37
2019-02-22T17:30:49.616Z,5.43
2019-02-22T17:33:20.751Z,5.43
2019-02-22T17:35:52.120Z,5.80
2019-02-22T17:38:23.240Z,6.53
2019-02-22T17:40:54.526Z,5.87
2019-02-22T17:43:25.749Z,5.73
2019-02-22T17:45:56.992Z,5.40
2019-02-22T17:48:28.184Z,5.83
2019-02-22T17:50:59.333Z,6.53
2019-02-22T17:53:30.633Z,6.33
2019-02-22T17:56:03.000Z,6.33
2019-02-22T17:58:34.227Z,5.73
2019-02-22T18:01:05.508Z,6.13
2019-02-22T18:03:36.694Z,6.20
2019-02-22T18:06:07.921Z,6.53
2019-02-22T18:08:39.219Z,7.90
2019-02-22T18:11:10.430Z,8.27
2019-02-22T18:13:41.648Z,6.13
2019-02-22T18:16:12.865Z,9.50
2019-02-22T18:18:44.344Z,12.53
2019-02-22T18:21:15.584Z,9.70
2019-02-22T18:23:47.080Z,6.43
2019-02-22T18:26:18.319Z,6.87
2019-02-22T18:28:49.618Z,9.60
2019-02-22T18:31:20.911Z,7.73
2019-02-22T18:33:52.113Z,9.20
2019-02-22T18:36:23.280Z,9.87
2019-02-22T18:38:54.524Z,7.77
2019-02-22T18:41:25.743Z,7.27
2019-02-22T18:43:56.938Z,8.97
2019-02-22T18:46:28.103Z,7.70
2019-02-22T18:48:59.264Z,9.60
2019-02-22T18:51:30.461Z,10.73
2019-02-22T18:54:01.678Z,8.00
2019-02-22T18:56:32.891Z,8.10
2019-02-22T18:59:04.075Z,9.20
2019-02-22T19:01:35.265Z,8.73
2019-02-22T19:04:10.715Z,8.20
2019-02-22T19:06:42.006Z,11.00
2019-02-22T19:09:13.180Z,9.90
2019-02-22T19:11:44.315Z,10.43
2019-02-22T19:14:15.533Z,9.20
2019-02-22T19:16:46.701Z,10.40
2019-02-22T19:19:18.028Z,9.90
2019-02-22T19:21:49.264Z,11.87
2019-02-22T19:24:21.506Z,11.10
2019-02-22T19:26:52.821Z,10.90
2019-02-22T19:29:25.066Z,11.47
2019-02-22T19:31:56.613Z,12.60
2019-02-22T19:34:27.917Z,11.37
2019-02-22T19:36:59.126Z,12.07
2019-02-22T19:39:31.325Z,12.70
2019-02-22T19:42:02.536Z,11.70
2019-02-22T19:44:35.156Z,11.10
2019-02-22T19:47:06.622Z,13.40
2019-02-22T19:49:38.772Z,11.23
2019-02-22T19:52:10.402Z,10.63
2019-02-22T19:54:44.752Z,10.90
2019-02-22T19:57:15.272Z,10.20
2019-02-22T19:59:46.538Z,10.57
2019-02-22T20:02:17.779Z,12.10
2019-02-22T20:04:49.132Z,11.53
2019-02-22T20:07:20.328Z,10.53
2019-02-22T20:09:55.471Z,11.10
2019-02-22T20:12:29.164Z,10.80
2019-02-22T20:14:59.774Z,10.60
2019-02-22T20:17:31.159Z,10.37
2019-02-22T20:20:02.453Z,10.40
2019-02-22T20:22:33.808Z,10.20
2019-02-22T20:25:05.165Z,10.93
2019-02-22T20:27:36.355Z,11.10
2019-02-22T20:30:09.449Z,11.30
2019-02-22T20:32:40.694Z,12.27
2019-02-22T20:35:14.557Z,10.93
2019-02-22T20:37:52.622Z,10.90
2019-02-22T20:40:18.838Z,10.97
2019-02-22T20:42:50.473Z,10.83
2019-02-22T20:45:21.952Z,10.37
2019-02-22T20:48:05.023Z,10.63
2019-02-22T20:50:34.921Z,12.00
2019-02-22T20:53:08.191Z,12.07
2019-02-22T20:55:39.583Z,13.17
2019-02-22T20:58:10.951Z,10.40
2019-02-22T21:00:42.147Z,9.60
2019-02-22T21:03:16.138Z,11.03
2019-02-22T21:05:46.636Z,10.90
2019-02-22T21:08:17.871Z,13.90
2019-02-22T21:10:49.139Z,9.67
2019-02-22T21:13:20.511Z,8.67
2019-02-22T21:15:51.844Z,8.90
2019-02-22T21:18:23.173Z,8.63
2019-02-22T21:20:54.399Z,9.33
2019-02-22T21:23:25.684Z,11.70
2019-02-22T21:25:56.879Z,9.70
2019-02-22T21:28:29.477Z,9.17
2019-02-22T21:31:00.758Z,9.30
2019-02-22T21:33:32.051Z,9.60
2019-02-22T21:36:04.852Z,9.40
2019-02-22T21:38:36.062Z,8.87
2019-02-22T21:41:07.301Z,9.20
2019-02-22T21:43:38.562Z,9.40
2019-02-22T21:46:09.834Z,9.70
2019-02-22T21:48:41.714Z,8.97
2019-02-22T21:51:12.933Z,9.80
2019-02-22T21:53:45.267Z,9.20
2019-02-22T21:56:16.953Z,9.63
2019-02-22T21:58:51.411Z,9.17
2019-02-22T22:01:22.680Z,10.90
2019-02-22T22:03:53.969Z,9.43
2019-02-22T22:06:25.120Z,12.03
2019-02-22T22:08:56.294Z,9.93
2019-02-22T22:11:27.522Z,9.27
2019-02-22T22:13:58.718Z,11.70
2019-02-22T22:16:30.007Z,9.43
2019-02-22T22:19:01.238Z,9.13
2019-02-22T22:21:32.412Z,9.77
2019-02-22T22:24:03.613Z,8.50
2019-02-22T22:26:34.807Z,9.67
2019-02-22T22:29:06.035Z,12.70
2019-02-22T22:31:37.287Z,8.77
2019-02-22T22:34:08.653Z,9.77
2019-02-22T22:36:41.006Z,9.13
2019-02-22T22:39:12.160Z,8.63
2019-02-22T22:41:43.493Z,10.93
2019-02-22T22:44:14.689Z,9.57
2019-02-22T22:46:47.009Z,10.07
2019-02-22T22:49:18.233Z,10.27
2019-02-22T22:51:49.412Z,9.77
2019-02-22T22:54:20.571Z,9.37
2019-02-22T22:56:51.897Z,8.87
2019-02-22T22:59:23.030Z,9.57
2019-02-22T23:01:55.512Z,9.37
2019-02-22T23:04:26.786Z,9.83
2019-02-22T23:06:58.164Z,9.13
2019-02-22T23:09:29.479Z,8.63
2019-02-22T23:12:00.764Z,9.93
2019-02-22T23:14:32.556Z,9.00
2019-02-22T23:17:03.725Z,10.23
2019-02-22T23:19:35.105Z,11.40
2019-02-22T23:22:06.238Z,9.80
2019-02-22T23:24:37.743Z,9.43
2019-02-22T23:27:10.057Z,8.97
2019-02-22T23:29:41.346Z,9.50
2019-02-22T23:32:12.540Z,9.93
2019-02-22T23:34:43.750Z,8.93
2019-02-22T23:37:14.923Z,9.43
2019-02-22T23:39:46.208Z,8.43
2019-02-22T23:42:18.981Z,8.10
2019-02-22T23:44:50.168Z,8.20
2019-02-22T23:47:21.362Z,8.73
2019-02-22T23:49:52.595Z,10.33
2019-02-22T23:52:23.786Z,8.50
2019-02-22T23:54:54.980Z,10.47
2019-02-22T23:57:26.164Z,8.23
2019-02-22T23:59:57.401Z,11.43
